Time;durP1;ratioP1;P1;durP2;ratioP2;P2;SDS_P1;SDS_P2;PMS_P1;PMS_P2;Temp;Humidity;BMP_temperature;BMP_pressure;BME280_temperature;BME280_humidity;BME280_pressure;Samples;Min_cycle;Max_cycle;Signal;HPM_P1;HPM_P2
2022/12/14 00:00:31;;;;;;;26.50;18.90;;;;;;;3.95;56.71;99573.28;5054311;28;20028;-79
2022/12/14 00:02:56;;;;;;;23.33;16.97;;;;;;;3.54;57.40;99506.38;5054128;28;20021;-79
2022/12/14 00:05:22;;;;;;;22.27;16.50;;;;;;;3.50;57.03;99507.63;5054447;28;20482;-79
2022/12/14 00:07:47;;;;;;;25.13;18.93;;;;;;;3.71;57.07;99516.19;5054458;28;20032;-79
2022/12/14 00:10:12;;;;;;;22.80;18.10;;;;;;;3.47;57.37;99487.81;5054154;28;20037;-79
2022/12/14 00:12:38;;;;;;;21.10;16.40;;;;;;;3.78;57.51;99559.09;5054227;28;20045;-79
2022/12/14 00:15:04;;;;;;;22.10;16.97;;;;;;;4.07;57.46;99589.66;5052963;28;20413;-79
2022/12/14 00:17:29;;;;;;;22.10;17.33;;;;;;;4.11;57.44;99601.50;5054198;28;20442;-79
2022/12/14 00:19:55;;;;;;;22.47;17.43;;;;;;;3.66;57.34;99523.59;5054265;28;20028;-79
2022/12/14 00:22:20;;;;;;;25.33;17.20;;;;;;;3.98;57.12;99586.06;5053066;28;20068;-79
2022/12/14 00:24:45;;;;;;;17.67;14.07;;;;;;;3.31;57.33;99471.03;5054118;28;20021;-79
2022/12/14 00:27:11;;;;;;;19.67;14.20;;;;;;;4.18;57.15;99612.22;5053905;28;20477;-79
2022/12/14 00:29:36;;;;;;;17.53;13.70;;;;;;;3.81;57.07;99522.28;5053818;28;20021;-79
2022/12/14 00:32:02;;;;;;;19.00;13.77;;;;;;;4.24;57.01;99575.94;5054157;28;20025;-79
2022/12/14 00:34:27;;;;;;;17.67;12.83;;;;;;;3.88;56.71;99516.50;5053891;28;20029;-79
2022/12/14 00:36:54;;;;;;;16.30;12.90;;;;;;;4.29;56.73;99578.97;5053742;28;20405;-79
2022/12/14 00:39:19;;;;;;;16.50;12.77;;;;;;;4.10;56.39;99534.53;5053900;28;20021;-79
2022/12/14 00:41:45;;;;;;;16.77;12.67;;;;;;;3.52;56.26;99469.16;5053507;28;20029;-79
2022/12/14 00:44:10;;;;;;;15.63;11.43;;;;;;;4.03;56.50;99544.69;5054466;28;20033;-79
2022/12/14 00:46:35;;;;;;;15.83;11.93;;;;;;;3.60;56.35;99465.88;5055742;28;20083;-79
2022/12/14 00:49:01;;;;;;;15.33;12.53;;;;;;;4.05;56.30;99547.19;5055472;28;20108;-79
2022/12/14 00:51:26;;;;;;;17.30;13.17;;;;;;;4.31;56.32;99591.88;5054391;28;20075;-79
2022/12/14 00:53:51;;;;;;;18.63;13.27;;;;;;;4.14;56.28;99573.31;5054696;28;20087;-79
2022/12/14 00:56:17;;;;;;;20.30;14.43;;;;;;;3.99;56.62;99539.88;5055273;28;20024;-79
2022/12/14 00:58:42;;;;;;;17.13;13.27;;;;;;;4.31;56.28;99586.66;5054982;28;20516;-79
2022/12/14 01:01:12;;;;;;;18.67;14.60;;;;;;;4.34;56.66;99604.69;5052015;28;20037;-79
2022/12/14 01:03:37;;;;;;;17.10;12.90;;;;;;;4.18;56.26;99552.13;5053195;28;20033;-79
2022/12/14 01:06:03;;;;;;;17.23;12.67;;;;;;;3.70;56.07;99500.66;5053451;28;20021;-79
2022/12/14 01:08:34;;;;;;;16.47;13.67;;;;;;;4.13;56.03;99584.72;5053242;28;20033;-79
2022/12/14 01:11:05;;;;;;;18.57;12.57;;;;;;;4.15;55.74;99563.69;5052923;28;20045;-79
2022/12/14 01:13:31;;;;;;;17.55;13.07;;;;;;;4.31;55.72;99597.94;5053266;28;20024;-79
2022/12/14 01:16:11;;;;;;;17.40;13.60;;;;;;;4.25;55.82;99589.81;5052877;28;20089;-79
2022/12/14 01:18:38;;;;;;;17.93;13.77;;;;;;;4.34;55.83;99594.22;5052912;28;20029;-79
2022/12/14 01:21:15;;;;;;;18.30;12.67;;;;;;;4.20;55.73;99560.66;5052588;28;20036;-79
2022/12/14 01:23:40;;;;;;;15.03;12.70;;;;;;;4.03;55.89;99546.47;5051387;28;20013;-79
2022/12/14 01:26:06;;;;;;;14.70;11.60;;;;;;;4.36;55.80;99593.13;5052860;28;20021;-79
2022/12/14 01:28:33;;;;;;;17.03;12.97;;;;;;;3.87;55.87;99518.28;5052706;28;20464;-79
2022/12/14 01:31:03;;;;;;;15.90;12.97;;;;;;;4.38;55.53;99580.75;5052554;28;20536;-79
2022/12/14 01:33:29;;;;;;;13.70;11.93;;;;;;;3.69;55.43;99497.22;5052016;28;20028;-79
2022/12/14 01:35:54;;;;;;;14.43;11.87;;;;;;;3.90;55.64;99525.84;5052463;28;20539;-79
2022/12/14 01:38:19;;;;;;;14.27;11.67;;;;;;;4.15;55.30;99553.22;5052571;28;20041;-79
2022/12/14 01:40:45;;;;;;;15.00;12.03;;;;;;;4.01;54.92;99545.78;5052387;28;20021;-79
2022/12/14 01:43:13;;;;;;;15.80;12.60;;;;;;;3.98;54.64;99526.00;5052582;28;20102;-79
2022/12/14 01:45:41;;;;;;;15.47;11.47;;;;;;;3.92;54.86;99523.09;5052307;28;20043;-79
2022/12/14 01:48:11;;;;;;;15.03;13.07;;;;;;;4.41;54.73;99624.91;5052280;28;20060;-79
2022/12/14 01:50:42;;;;;;;19.30;13.67;;;;;;;4.21;54.63;99557.09;5052497;28;20036;-79
2022/12/14 01:53:13;;;;;;;19.63;14.07;;;;;;;3.67;54.55;99491.28;5052196;28;20546;-79
2022/12/14 01:55:43;;;;;;;19.25;14.02;;;;;;;4.52;55.01;99594.41;5050939;28;20449;-79
2022/12/14 01:58:14;;;;;;;19.27;14.93;;;;;;;4.53;54.94;99616.97;5052133;28;20485;-79
2022/12/14 02:00:41;;;;;;;18.20;14.47;;;;;;;3.99;54.86;99506.75;5052036;28;20064;-79
2022/12/14 02:03:13;;;;;;;18.43;14.53;;;;;;;4.20;54.88;99532.75;5052109;28;20472;-79
2022/12/14 02:05:45;;;;;;;26.73;17.80;;;;;;;3.79;55.05;99495.47;5051814;28;20025;-79
2022/12/14 02:08:11;;;;;;;;;;;;;;;4.36;55.07;99595.75;5052235;28;20044;-79
2022/12/14 02:10:36;;;;;;;18.83;13.77;;;;;;;4.03;55.46;99565.59;5051798;28;20386;-79
2022/12/14 02:13:17;;;;;;;20.50;14.97;;;;;;;4.52;55.13;99595.22;5052042;28;20504;-79
2022/12/14 02:15:43;;;;;;;18.00;13.03;;;;;;;4.49;55.32;99590.28;5051670;28;20025;-79
2022/12/14 02:18:13;;;;;;;16.40;13.60;;;;;;;4.34;55.71;99586.38;5050428;28;20056;-79
2022/12/14 02:21:02;;;;;;;18.43;13.63;;;;;;;3.41;55.71;99438.78;5051737;28;20021;-79
2022/12/14 02:23:39;;;;;;;18.80;13.80;;;;;;;4.34;55.99;99594.22;5050414;28;20067;-79
2022/12/14 02:26:29;;;;;;;19.67;13.03;;;;;;;4.30;55.94;99601.50;5051904;28;20040;-79
2022/12/14 02:29:19;;;;;;;19.20;13.90;;;;;;;3.91;55.95;99537.13;5050621;28;20498;-79
2022/12/14 02:32:10;;;;;;;18.60;13.97;;;;;;;4.34;56.22;99602.91;5050371;28;20071;-79
2022/12/14 02:34:36;;;;;;;19.63;14.50;;;;;;;4.32;56.51;99598.75;5051670;28;20056;-79
2022/12/14 02:37:25;;;;;;;17.47;12.67;;;;;;;3.52;56.33;99471.75;5051579;28;20060;-79
2022/12/14 02:40:26;;;;;;;19.07;14.90;;;;;;;4.31;56.32;99597.94;5047899;28;20040;-79
2022/12/14 02:43:30;;;;;;;20.90;15.57;;;;;;;4.23;56.38;99595.19;5051643;28;20021;-79
2022/12/14 02:46:30;;;;;;;18.50;13.67;;;;;;;3.02;56.37;99439.66;5050328;28;20048;-79
2022/12/14 02:49:14;;;;;;;17.77;13.23;;;;;;;2.87;57.21;99437.38;5049739;28;20041;-79
2022/12/14 02:51:45;;;;;;;16.17;13.03;;;;;;;4.02;57.09;99602.31;5051620;28;20025;-79
2022/12/14 02:54:11;;;;;;;17.73;12.50;;;;;;;4.04;57.20;99595.16;5050409;28;20171;-79
2022/12/14 02:56:43;;;;;;;17.37;11.80;;;;;;;4.08;57.00;99607.00;5050028;28;20120;-79
2022/12/14 02:59:09;;;;;;;17.33;12.83;;;;;;;3.64;57.04;99528.13;5053563;28;20025;-78
2022/12/14 03:01:37;;;;;;;16.87;12.47;;;;;;;3.92;56.62;99581.41;5060927;28;20025;-79
2022/12/14 03:04:03;;;;;;;15.50;13.80;;;;;;;3.87;56.40;99560.06;5056903;28;20493;-79
2022/12/14 03:06:28;;;;;;;19.03;14.83;;;;;;;4.10;56.62;99613.72;5055589;28;20021;-79
2022/12/14 03:09:00;;;;;;;17.43;13.33;;;;;;;4.08;57.07;99605.19;5054586;28;20100;-79
2022/12/14 03:11:34;;;;;;;14.37;12.30;;;;;;;3.76;57.18;99550.56;5056311;28;20075;-79
2022/12/14 03:14:11;;;;;;;18.57;13.67;;;;;;;3.22;56.88;99464.00;5054851;28;20571;-79
2022/12/14 03:16:46;;;;;;;22.60;16.07;;;;;;;3.45;57.15;99494.97;5049940;28;20420;-79
2022/12/14 03:19:17;;;;;;;20.10;13.90;;;;;;;4.18;57.09;99610.44;5050067;28;20472;-79
2022/12/14 03:21:50;;;;;;;14.60;12.52;;;;;;;3.52;56.74;99500.47;5050987;28;20476;-79
2022/12/14 03:24:23;;;;;;;14.10;11.87;;;;;;;3.75;56.93;99554.16;5050902;28;20033;-79
2022/12/14 03:26:52;;;;;;;16.97;12.47;;;;;;;4.24;56.65;99607.28;5051152;28;20108;-79
2022/12/14 03:29:36;;;;;;;15.37;11.83;;;;;;;4.31;56.05;99615.41;5052101;28;20493;-79
2022/12/14 03:32:07;;;;;;;17.43;12.30;;;;;;;3.72;56.24;99530.91;5053163;28;20025;-79
2022/12/14 03:34:41;;;;;;;14.07;10.97;;;;;;;4.22;56.13;99590.09;5054808;28;20485;-79
2022/12/14 03:37:36;;;;;;;14.43;12.43;;;;;;;4.27;56.04;99621.88;5053708;28;20029;-79
2022/12/14 03:40:04;;;;;;;13.97;11.43;;;;;;;3.94;56.35;99558.56;5053546;28;20028;-79
2022/12/14 03:42:39;;;;;;;16.07;11.97;;;;;;;4.07;55.95;99577.44;5053441;28;20082;-79
2022/12/14 03:45:27;;;;;;;14.33;11.27;;;;;;;3.95;55.49;99567.22;5051938;28;20017;-79
2022/12/14 03:48:17;;;;;;;15.63;11.77;;;;;;;4.29;55.69;99627.78;5053280;28;20028;-79
2022/12/14 03:50:48;;;;;;;16.73;12.90;;;;;;;4.26;55.72;99625.44;5052121;28;20029;-79
2022/12/14 03:53:22;;;;;;;17.85;13.05;;;;;;;3.67;55.46;99533.06;5053237;28;20032;-79
2022/12/14 03:55:57;;;;;;;14.93;12.10;;;;;;;3.72;55.42;99543.16;5053197;28;20061;-79
2022/12/14 03:59:07;;;;;;;17.73;13.67;;;;;;;4.23;54.51;99613.47;5056478;28;20052;-79
2022/12/14 04:01:37;;;;;;;20.60;14.00;;;;;;;3.75;55.39;99555.94;5034814;28;20036;-79
2022/12/14 04:04:19;;;;;;;17.57;13.73;;;;;;;4.25;55.13;99603.72;5034336;28;20476;-79
2022/12/14 04:06:53;;;;;;;16.85;12.25;;;;;;;4.27;55.43;99599.16;5049469;28;20036;-79
2022/12/14 04:09:40;;;;;;;14.10;11.47;;;;;;;3.40;54.96;99447.56;5056084;28;20064;-79
2022/12/14 04:20:56;;;;;;;15.93;12.23;;;;;;;4.18;55.17;99533.84;5054080;28;20429;-79
2022/12/14 04:26:27;;;;;;;14.43;11.47;;;;;;;3.79;54.57;99469.34;5054269;28;20040;-79
2022/12/14 04:32:11;;;;;;;17.67;13.63;;;;;;;4.37;54.30;99557.34;5054205;28;20035;-79
2022/12/14 04:34:40;;;;;;;19.13;13.40;;;;;;;4.01;54.31;99498.78;5053809;28;20099;-79
2022/12/14 04:37:12;;;;;;;18.43;13.17;;;;;;;4.21;54.37;99518.72;5052628;28;20039;-79
2022/12/14 04:39:52;;;;;;;17.20;13.70;;;;;;;4.43;53.87;99557.63;5053646;28;20033;-79
2022/12/14 04:42:23;;;;;;;21.07;12.73;;;;;;;4.47;54.13;99561.66;5053830;28;20028;-79
2022/12/14 04:44:53;;;;;;;17.93;14.07;;;;;;;4.54;54.14;99561.91;5053813;28;20409;-79
2022/12/14 04:47:18;;;;;;;16.60;13.03;;;;;;;3.95;54.00;99486.25;5053602;28;20029;-79
2022/12/14 04:49:55;;;;;;;15.53;12.77;;;;;;;4.39;53.76;99551.03;5053484;28;20029;-79
2022/12/14 04:52:28;;;;;;;18.93;13.97;;;;;;;3.95;53.69;99513.22;5053394;28;20481;-79
2022/12/14 04:55:02;;;;;;;17.70;12.47;;;;;;;4.50;54.00;99571.00;5053456;28;20418;-79
2022/12/14 04:57:32;;;;;;;17.53;12.33;;;;;;;3.90;53.94;99473.63;5053217;28;20040;-79
2022/12/14 05:00:00;;;;;;;17.47;13.97;;;;;;;3.87;54.06;99465.22;5055684;28;20055;-79
2022/12/14 05:03:14;;;;;;;17.00;13.37;;;;;;;3.19;53.36;99442.44;5056604;28;20027;-79
2022/12/14 05:06:02;;;;;;;17.93;14.33;;;;;;;4.42;53.27;99573.44;5047266;28;20045;-79
2022/12/14 05:08:52;;;;;;;18.63;13.20;;;;;;;4.11;54.08;99523.94;5056326;28;20556;-79
2022/12/14 05:11:26;;;;;;;22.27;16.63;;;;;;;4.42;54.17;99583.91;5057716;28;20123;-79
2022/12/14 05:13:52;;;;;;;17.00;12.83;;;;;;;3.80;53.64;99504.94;5056429;28;20567;-79
2022/12/14 05:16:20;;;;;;;17.83;13.40;;;;;;;2.23;54.25;99263.09;5052659;28;20108;-79
2022/12/14 05:18:45;;;;;;;16.30;13.53;;;;;;;3.71;54.49;99512.75;5051510;28;20025;-79
2022/12/14 05:23:59;;;;;;;22.50;15.43;;;;;;;3.83;54.38;99525.56;5049455;28;20045;-79
2022/12/14 05:26:25;;;;;;;20.47;14.37;;;;;;;3.67;54.29;99525.25;5053210;28;20024;-79
2022/12/14 05:28:50;;;;;;;23.17;14.60;;;;;;;3.94;54.08;99558.56;5052477;28;20516;-79
2022/12/14 05:31:16;;;;;;;25.10;17.00;;;;;;;3.80;54.53;99522.41;5057731;28;20112;-79
2022/12/14 05:33:41;;;;;;;20.83;15.90;;;;;;;4.27;54.19;99572.22;5057635;28;20036;-79
2022/12/14 05:36:08;;;;;;;21.77;15.47;;;;;;;3.98;53.98;99533.00;5057246;28;20086;-79
2022/12/14 05:38:34;;;;;;;21.13;15.07;;;;;;;4.16;54.11;99573.16;5058795;28;20025;-79
2022/12/14 05:40:59;;;;;;;25.23;17.07;;;;;;;4.24;54.02;99586.38;5058178;28;20091;-79
2022/12/14 05:43:25;;;;;;;24.03;17.83;;;;;;;4.38;54.59;99613.91;5056738;28;20025;-79
2022/12/14 05:45:57;;;;;;;18.47;13.63;;;;;;;3.88;54.19;99530.38;5052650;28;20029;-79
2022/12/14 05:48:22;;;;;;;21.80;13.13;;;;;;;4.13;54.49;99576.88;5052454;28;20028;-79
2022/12/14 05:50:48;;;;;;;15.37;12.67;;;;;;;3.27;54.52;99447.00;5052354;28;20024;-79
2022/12/14 05:53:13;;;;;;;18.33;13.20;;;;;;;3.74;54.39;99521.16;5052601;28;20032;-79
2022/12/14 05:55:48;;;;;;;17.93;14.07;;;;;;;4.36;54.04;99613.22;5052279;28;20082;-79
2022/12/14 05:58:14;;;;;;;15.17;13.17;;;;;;;3.91;54.17;99552.78;5052128;28;20162;-79
2022/12/14 06:00:39;;;;;;;20.10;14.47;;;;;;;4.50;54.26;99633.75;5051080;28;20522;-79
2022/12/14 06:03:05;;;;;;;19.10;12.13;;;;;;;3.97;54.11;99568.75;5052238;28;20557;-79
2022/12/14 06:05:31;;;;;;;16.77;13.13;;;;;;;3.70;54.24;99498.84;5052508;28;20017;-79
2022/12/14 06:07:56;;;;;;;19.30;13.83;;;;;;;3.74;53.89;99515.13;5052322;28;20025;-79
2022/12/14 06:10:22;;;;;;;20.53;12.97;;;;;;;3.53;54.25;99490.88;5051983;28;20032;-79
2022/12/14 06:12:47;;;;;;;19.40;12.70;;;;;;;4.50;54.16;99648.59;5047033;28;20033;-79
2022/12/14 06:15:13;;;;;;;19.50;13.47;;;;;;;4.04;54.12;99553.38;5060088;28;20094;-79
2022/12/14 06:17:45;;;;;;;19.57;12.67;;;;;;;4.60;54.00;99636.38;5060435;28;20468;-79
2022/12/14 06:20:13;;;;;;;22.63;14.97;;;;;;;4.68;54.02;99637.31;5068300;28;20039;-79
2022/12/14 06:22:39;;;;;;;21.33;14.70;;;;;;;4.31;53.74;99577.03;5062347;28;20390;-79
2022/12/14 06:25:06;;;;;;;23.33;15.70;;;;;;;4.85;54.51;99653.28;5071816;28;20038;-79
2022/12/14 06:27:32;;;;;;;21.97;15.37;;;;;;;4.73;53.96;99611.59;5071843;28;20564;-79
2022/12/14 06:29:57;;;;;;;23.53;16.77;;;;;;;4.91;53.84;99631.81;5057830;28;20059;-79
2022/12/14 06:32:23;;;;;;;25.27;16.60;;;;;;;4.85;53.94;99633.19;5051858;28;20027;-79
2022/12/14 06:34:48;;;;;;;24.60;14.90;;;;;;;4.08;53.73;99524.22;5042622;28;20555;-79
2022/12/14 06:37:14;;;;;;;22.90;15.43;;;;;;;4.60;53.95;99631.97;5068134;28;20044;-79
2022/12/14 06:39:39;;;;;;;24.60;17.03;;;;;;;3.87;54.14;99526.13;5068670;28;20412;-79
2022/12/14 06:42:05;;;;;;;24.40;16.73;;;;;;;4.62;53.84;99647.50;5049533;28;20095;-79
2022/12/14 06:44:31;;;;;;;25.13;17.27;;;;;;;4.11;53.61;99597.09;5048230;28;20025;-79
2022/12/14 06:46:56;;;;;;;22.90;15.60;;;;;;;3.96;54.01;99610.69;5050141;28;20032;-79
2022/12/14 06:49:22;;;;;;;22.90;15.50;;;;;;;4.21;54.24;99646.75;5065580;28;20032;-79
2022/12/14 06:51:48;;;;;;;21.33;14.47;;;;;;;4.22;54.41;99640.56;5071020;28;20510;-79
2022/12/14 06:54:14;;;;;;;21.20;13.48;;;;;;;3.99;54.78;99602.56;5069912;28;20024;-79
2022/12/14 06:56:41;;;;;;;21.07;12.80;;;;;;;4.02;54.64;99613.59;5071286;28;20028;-79
2022/12/14 06:59:07;;;;;;;21.23;12.80;;;;;;;4.46;54.19;99666.34;5071586;28;20035;-79
2022/12/14 07:01:34;;;;;;;26.10;15.57;;;;;;;4.52;53.99;99660.59;5069792;28;20048;-79
2022/12/14 07:04:00;;;;;;;22.53;14.07;;;;;;;3.52;53.54;99510.91;5070506;28;20036;-79
2022/12/14 07:06:27;;;;;;;25.93;13.70;;;;;;;4.04;54.14;99592.56;5068894;28;20040;-79
2022/12/14 07:08:55;;;;;;;22.83;14.53;;;;;;;4.45;53.81;99662.06;5061761;28;20102;-78
2022/12/14 07:11:21;;;;;;;23.63;14.03;;;;;;;4.49;53.92;99673.09;5049541;28;20076;-79
2022/12/14 07:13:46;;;;;;;21.13;13.10;;;;;;;3.97;53.63;99592.25;5051325;28;20028;-80
2022/12/14 07:16:23;;;;;;;22.93;14.67;;;;;;;4.47;53.80;99663.59;5049639;28;20409;-79
2022/12/14 07:18:49;;;;;;;25.20;15.07;;;;;;;4.44;54.00;99657.78;5050101;28;20040;-79
2022/12/14 07:21:17;;;;;;;22.50;14.33;;;;;;;4.52;53.74;99681.50;5047834;28;20056;-80
2022/12/14 07:23:44;;;;;;;20.70;13.17;;;;;;;4.25;53.95;99618.56;5048865;28;20490;-80
2022/12/14 07:26:15;;;;;;;23.33;15.33;;;;;;;4.68;53.62;99683.56;5049939;28;20021;-80
2022/12/14 07:28:41;;;;;;;28.80;17.90;;;;;;;4.72;53.45;99680.53;5054229;28;20056;-80
2022/12/14 07:31:11;;;;;;;25.80;17.07;;;;;;;4.09;53.54;99574.69;5072404;28;20021;-79
2022/12/14 07:33:37;;;;;;;24.57;15.70;;;;;;;4.23;53.53;99605.63;5075789;28;20476;-80
2022/12/14 07:36:16;;;;;;;24.80;15.83;;;;;;;4.73;53.14;99671.75;5077575;28;20103;-80
2022/12/14 07:38:43;;;;;;;18.37;13.83;;;;;;;4.65;53.39;99657.69;5075752;28;20039;-79
2022/12/14 07:41:12;;;;;;;17.97;12.40;;;;;;;4.10;53.34;99571.94;5073385;28;20481;-78
2022/12/14 07:43:39;;;;;;;22.37;16.13;;;;;;;4.62;53.37;99658.81;5069039;28;20359;-80
2022/12/14 07:46:07;;;;;;;19.83;13.87;;;;;;;4.02;53.27;99563.13;5057483;28;20079;-80
2022/12/14 07:48:32;;;;;;;18.70;12.57;;;;;;;4.64;53.40;99661.28;5057409;28;20588;-79
2022/12/14 07:51:07;;;;;;;16.77;12.47;;;;;;;4.03;53.70;99577.84;5060014;28;20029;-79
2022/12/14 07:53:33;;;;;;;17.93;12.87;;;;;;;4.24;53.70;99609.06;5055771;28;20055;-79
2022/12/14 07:56:01;;;;;;;21.67;15.53;;;;;;;4.49;53.97;99657.41;5056507;28;20033;-79
2022/12/14 07:58:26;;;;;;;20.60;15.27;;;;;;;4.35;53.91;99648.97;5060487;28;20051;-79
2022/12/14 08:00:52;;;;;;;23.07;15.67;;;;;;;4.22;53.98;99629.28;5074448;28;20489;-79
2022/12/14 08:03:17;;;;;;;24.50;18.90;;;;;;;4.76;54.03;99699.41;5073263;28;20032;-79
2022/12/14 08:05:42;;;;;;;23.93;17.93;;;;;;;4.13;53.91;99612.63;5073646;28;20025;-80
2022/12/14 08:08:08;;;;;;;22.63;15.87;;;;;;;4.24;54.55;99625.59;5072649;28;20071;-80
2022/12/14 08:10:33;;;;;;;22.40;15.10;;;;;;;4.60;54.23;99680.81;5074032;28;20130;-80
2022/12/14 08:12:59;;;;;;;24.30;14.40;;;;;;;4.41;54.11;99637.97;5072416;28;20108;-79
2022/12/14 08:15:24;;;;;;;24.63;14.47;;;;;;;4.62;54.25;99674.50;5074097;28;20467;-79
2022/12/14 08:17:49;;;;;;;20.27;14.87;;;;;;;5.02;54.09;99728.47;5073066;28;20029;-80
2022/12/14 08:20:15;;;;;;;18.67;14.80;;;;;;;4.83;54.14;99692.66;5069473;28;20043;-80
2022/12/14 08:22:40;;;;;;;24.80;14.90;;;;;;;4.74;53.75;99659.47;5071326;28;20428;-79
2022/12/14 08:25:06;;;;;;;25.80;15.17;;;;;;;4.42;53.37;99616.09;5066832;28;20013;-80
2022/12/14 08:27:31;;;;;;;21.43;14.07;;;;;;;4.52;53.26;99612.69;5072282;28;20035;-80
2022/12/14 08:29:57;;;;;;;26.73;16.77;;;;;;;4.30;53.41;99575.38;5074132;28;20029;-78
2022/12/14 08:32:22;;;;;;;21.50;15.93;;;;;;;4.62;53.43;99630.03;5054453;28;20043;-80
2022/12/14 08:34:48;;;;;;;23.83;17.57;;;;;;;4.90;53.11;99644.06;5042096;28;20068;-78
2022/12/14 08:37:13;;;;;;;27.63;15.63;;;;;;;5.40;52.70;99722.41;5050865;28;20029;-80
2022/12/14 08:39:38;;;;;;;26.57;16.73;;;;;;;5.42;52.86;99716.06;5053398;28;20025;-79
2022/12/14 08:42:04;;;;;;;23.53;15.80;;;;;;;4.88;52.63;99614.59;5052302;28;20017;-80
2022/12/14 08:44:29;;;;;;;29.17;19.70;;;;;;;5.43;52.24;99690.69;5051901;28;20090;-80
2022/12/14 08:46:55;;;;;;;27.65;19.48;;;;;;;5.21;52.51;99622.97;5060303;28;20124;-80
2022/12/14 08:49:20;;;;;;;25.77;18.00;;;;;;;5.72;52.29;99688.81;5072244;28;20425;-80
2022/12/14 08:51:45;;;;;;;30.35;21.30;;;;;;;5.82;52.16;99686.16;5061288;28;20062;-79
2022/12/14 08:54:11;;;;;;;35.47;24.27;;;;;;;5.70;52.28;99648.00;5055112;28;20013;-80
2022/12/14 08:56:36;;;;;;;32.00;22.35;;;;;;;5.65;51.72;99643.19;5051842;28;20028;-79
2022/12/14 08:59:02;;;;;;;28.80;19.05;;;;;;;5.49;51.83;99608.13;5051847;28;20036;-79
2022/12/14 09:01:29;;;;;;;26.02;16.15;;;;;;;5.99;51.51;99672.34;5051932;28;20036;-80
2022/12/14 09:03:54;;;;;;;24.48;16.42;;;;;;;5.50;51.53;99579.16;5051074;28;20406;-79
2022/12/14 09:06:23;;;;;;;24.15;16.35;;;;;;;5.75;51.62;99624.81;5050514;28;20078;-79
2022/12/14 09:08:49;;;;;;;22.92;15.77;;;;;;;6.04;51.89;99675.34;5062690;28;20102;-79
2022/12/14 09:11:16;;;;;;;23.50;14.80;;;;;;;6.04;51.83;99670.09;5071953;28;20143;-79
2022/12/14 09:13:42;;;;;;;16.85;12.60;;;;;;;5.43;52.20;99565.84;5070471;28;20024;-80
2022/12/14 09:16:16;;;;;;;16.58;10.65;;;;;;;5.96;51.75;99635.13;5071053;28;20032;-80
2022/12/14 09:18:42;;;;;;;16.52;12.10;;;;;;;6.00;52.31;99644.34;5072131;28;20020;-79
2022/12/14 09:21:08;;;;;;;21.17;15.07;;;;;;;5.43;52.13;99581.53;5047073;28;20429;-79
2022/12/14 09:23:34;;;;;;;16.77;12.02;;;;;;;5.66;52.36;99610.81;5065315;28;20033;-79
2022/12/14 09:26:03;;;;;;;18.48;12.13;;;;;;;5.46;52.05;99580.44;5070742;28;20063;-79
2022/12/14 09:28:30;;;;;;;17.42;12.95;;;;;;;5.34;52.11;99556.22;5056296;28;20418;-80
2022/12/14 09:31:01;;;;;;;19.08;14.25;;;;;;;5.61;52.42;99601.72;5052024;28;20025;-79
2022/12/14 09:33:27;;;;;;;17.10;13.45;;;;;;;5.56;52.51;99581.22;5052006;28;20033;-79
2022/12/14 09:35:59;;;;;;;21.65;13.48;;;;;;;5.41;52.12;99562.53;5052163;28;20052;-79
2022/12/14 09:38:24;;;;;;;19.23;13.57;;;;;;;5.09;52.02;99500.09;5053085;28;20040;-79
2022/12/14 09:40:58;;;;;;;17.48;11.05;;;;;;;5.18;52.17;99523.75;5051020;28;20017;-79
2022/12/14 09:43:50;;;;;;;14.93;11.32;;;;;;;5.42;51.64;99540.63;5052246;28;20029;-79
2022/12/14 09:46:40;;;;;;;21.75;13.98;;;;;;;6.03;52.04;99625.69;5052374;28;20036;-79
2022/12/14 09:49:17;;;;;;;28.88;20.95;;;;;;;5.77;51.37;99560.00;5051305;28;20029;-79
2022/12/14 09:51:43;;;;;;;29.52;19.90;;;;;;;6.05;51.34;99573.97;5055856;28;20087;-79
2022/12/14 09:54:14;;;;;;;21.55;14.55;;;;;;;5.78;50.83;99526.78;5069986;28;20452;-79
2022/12/14 09:56:41;;;;;;;30.33;20.27;;;;;;;6.15;50.75;99593.06;5072027;28;20029;-79
2022/12/14 09:59:15;;;;;;;19.90;14.15;;;;;;;5.73;51.09;99514.13;5071551;28;20028;-80
2022/12/14 10:01:54;;;;;;;14.10;9.65;;;;;;;5.92;50.77;99537.59;5070663;28;20025;-79
2022/12/14 10:04:28;;;;;;;13.63;8.77;;;;;;;6.29;50.54;99586.47;5051641;28;20032;-79
2022/12/14 10:07:01;;;;;;;10.80;8.02;;;;;;;6.35;49.90;99585.88;5050805;28;20410;-80
2022/12/14 10:09:48;;;;;;;12.13;9.00;;;;;;;6.16;49.84;99551.94;5048224;28;20167;-80
2022/12/14 10:12:35;;;;;;;10.48;7.03;;;;;;;6.09;49.36;99546.47;5050953;28;20102;-80
2022/12/14 10:15:25;;;;;;;9.45;7.22;;;;;;;6.41;49.23;99582.66;5051300;28;20021;-80
2022/12/14 10:18:25;;;;;;;14.50;10.10;;;;;;;6.49;49.50;99595.00;5052603;28;20095;-80
2022/12/14 10:20:56;;;;;;;13.40;9.55;;;;;;;6.57;50.08;99585.41;5051791;28;20563;-79
2022/12/14 10:23:24;;;;;;;12.65;8.90;;;;;;;6.71;49.99;99585.88;5042574;28;20040;-79
2022/12/14 10:25:54;;;;;;;12.13;9.23;;;;;;;6.79;49.48;99586.78;5063896;28;20092;-79
2022/12/14 10:28:35;;;;;;;12.13;9.80;;;;;;;6.57;50.17;99555.75;5069780;28;20017;-80
2022/12/14 10:31:01;;;;;;;12.77;10.20;;;;;;;6.46;49.92;99524.50;5062357;28;20063;-80
2022/12/14 10:33:30;;;;;;;10.98;9.52;;;;;;;6.97;50.17;99579.69;5056672;28;20517;-79
2022/12/14 10:36:16;;;;;;;14.00;9.15;;;;;;;6.98;49.57;99568.19;5053666;28;20028;-79
2022/12/14 10:39:10;;;;;;;14.32;10.48;;;;;;;7.10;49.32;99567.94;5037575;28;20044;-79
2022/12/14 10:41:42;;;;;;;10.30;8.82;;;;;;;7.12;49.04;99569.44;5061054;28;20040;-79
2022/12/14 10:44:43;;;;;;;12.73;8.55;;;;;;;6.40;48.97;99449.06;5050639;28;20036;-79
2022/12/14 10:47:22;;;;;;;11.02;7.93;;;;;;;7.05;49.12;99557.91;5042445;28;20041;-79
2022/12/14 10:49:47;;;;;;;14.05;8.68;;;;;;;7.08;49.14;99560.22;5031583;28;20450;-79
2022/12/14 10:52:18;;;;;;;9.10;7.90;;;;;;;7.10;49.51;99557.44;5044906;28;20024;-79
2022/12/14 10:54:49;;;;;;;12.85;9.85;;;;;;;6.79;49.65;99502.81;5048987;28;20086;-79
2022/12/14 10:57:25;;;;;;;12.65;9.10;;;;;;;7.18;49.67;99549.59;5050606;28;20033;-79
2022/12/14 10:59:51;;;;;;;11.93;8.75;;;;;;;6.87;50.11;99492.34;5048147;28;20025;-79
2022/12/14 11:02:39;;;;;;;12.48;9.38;;;;;;;6.81;49.74;99486.91;5047225;28;20054;-79
2022/12/14 11:05:35;;;;;;;11.55;8.93;;;;;;;7.26;49.45;99537.34;5048773;28;20040;-79
2022/12/14 11:08:01;;;;;;;13.95;10.88;;;;;;;7.28;49.60;99532.75;5040652;28;20033;-79
2022/12/14 11:10:30;;;;;;;10.82;9.20;;;;;;;7.28;49.78;99542.44;5053675;28;20036;-79
2022/12/14 11:13:04;;;;;;;15.52;10.85;;;;;;;7.28;49.27;99530.13;5053509;28;20521;-79
2022/12/14 11:15:37;;;;;;;15.68;11.55;;;;;;;6.68;49.65;99440.88;5054576;28;20421;-79
2022/12/14 11:18:25;;;;;;;13.77;9.40;;;;;;;6.55;50.00;99414.25;5054713;28;20414;-80
2022/12/14 11:20:56;;;;;;;14.00;9.38;;;;;;;7.31;50.39;99532.44;5041300;28;20486;-79
2022/12/14 11:23:26;;;;;;;14.57;8.17;;;;;;;7.31;49.65;99529.00;5035315;28;20082;-79
2022/12/14 11:25:58;;;;;;;11.30;8.75;;;;;;;7.07;50.13;99503.44;5072890;28;20278;-79
2022/12/14 11:28:50;;;;;;;12.88;10.35;;;;;;;7.25;50.07;99501.56;5055946;28;20025;-80
2022/12/14 11:31:19;;;;;;;9.80;8.50;;;;;;;7.37;50.46;99515.22;5057038;28;20037;-79
2022/12/14 11:33:49;;;;;;;13.45;10.02;;;;;;;7.36;50.41;99504.88;5056553;28;20033;-79
2022/12/14 11:36:35;;;;;;;9.73;8.15;;;;;;;7.38;50.81;99497.66;5043778;28;20028;-79
2022/12/14 11:39:23;;;;;;;9.30;7.80;;;;;;;7.32;50.72;99484.19;5047530;28;21589;-78
2022/12/14 11:42:03;;;;;;;12.32;8.88;;;;;;;7.43;50.75;99488.34;5037602;28;20091;-79
2022/12/14 11:44:34;;;;;;;11.90;8.95;;;;;;;7.01;50.57;99422.69;5049742;28;20078;-78
2022/12/14 11:47:14;;;;;;;13.10;8.90;;;;;;;7.18;50.24;99436.69;5053663;28;20048;-80
2022/12/14 11:49:39;;;;;;;11.40;9.13;;;;;;;7.43;50.32;99480.47;5040702;28;20502;-79
2022/12/14 11:52:09;;;;;;;13.93;9.15;;;;;;;7.48;50.36;99482.63;5042911;28;20029;-79
2022/12/14 11:54:37;;;;;;;13.38;8.77;;;;;;;7.49;50.37;99479.84;5055707;28;20111;-79
2022/12/14 11:57:41;;;;;;;10.23;7.70;;;;;;;7.39;50.55;99452.84;5049890;28;20044;-79
2022/12/14 12:00:27;;;;;;;9.80;7.55;;;;;;;6.93;50.22;99394.63;5042625;28;20040;-79
2022/12/14 12:03:12;;;;;;;10.45;7.63;;;;;;;7.30;50.74;99436.25;5037784;28;20044;-79